createdAt,value
2018-01-30T00:01:45.131Z,33.93
2018-01-30T00:04:13.772Z,34.70
2018-01-30T00:06:42.267Z,33.57
2018-01-30T00:09:10.770Z,31.37
2018-01-30T00:11:39.402Z,32.40
2018-01-30T00:14:08.662Z,43.23
2018-01-30T00:16:37.151Z,37.10
2018-01-30T00:19:05.844Z,28.40
2018-01-30T00:21:34.338Z,53.23
2018-01-30T00:24:02.856Z,40.80
2018-01-30T00:26:31.592Z,32.07
2018-01-30T00:29:00.091Z,36.27
2018-01-30T00:31:29.422Z,34.30
2018-01-30T00:33:57.960Z,31.10
2018-01-30T00:36:26.505Z,36.63
2018-01-30T00:38:54.999Z,34.33
2018-01-30T00:41:23.635Z,36.77
2018-01-30T00:43:52.899Z,33.00
2018-01-30T00:46:21.390Z,33.97
2018-01-30T00:48:50.198Z,33.73
2018-01-30T00:51:19.519Z,45.53
2018-01-30T00:53:48.011Z,49.10
2018-01-30T00:56:16.554Z,53.10
2018-01-30T00:58:45.807Z,56.87
2018-01-30T01:01:14.346Z,44.00
2018-01-30T01:03:43.663Z,44.13
2018-01-30T01:06:12.979Z,39.90
2018-01-30T01:08:41.471Z,58.13
2018-01-30T01:11:10.011Z,68.20
2018-01-30T01:13:39.287Z,43.33
2018-01-30T01:16:07.980Z,34.63
2018-01-30T01:18:36.748Z,29.03
2018-01-30T01:21:05.239Z,22.97
2018-01-30T01:23:33.737Z,22.00
2018-01-30T01:26:02.547Z,18.53
2018-01-30T01:28:31.793Z,24.60
2018-01-30T01:31:00.276Z,25.17
2018-01-30T01:33:28.828Z,19.47
2018-01-30T01:35:57.325Z,14.73
2018-01-30T01:38:25.876Z,15.60
2018-01-30T01:40:55.570Z,16.30
2018-01-30T01:43:24.904Z,18.70
2018-01-30T01:45:53.387Z,15.93
2018-01-30T01:48:21.935Z,16.57
2018-01-30T01:50:51.240Z,19.67
2018-01-30T01:53:19.720Z,16.87
2018-01-30T01:55:49.288Z,15.80
2018-01-30T01:58:17.783Z,21.07
2018-01-30T02:00:46.279Z,20.50
2018-01-30T02:03:14.822Z,23.30
2018-01-30T02:05:43.315Z,30.63
2018-01-30T02:08:11.802Z,32.87
2018-01-30T02:10:40.712Z,26.40
2018-01-30T02:13:09.203Z,54.03
2018-01-30T02:15:38.475Z,56.83
2018-01-30T02:18:07.063Z,66.00
2018-01-30T02:20:35.554Z,68.77
2018-01-30T02:23:04.032Z,82.80
2018-01-30T02:25:32.572Z,65.57
2018-01-30T02:28:01.125Z,16.67
2018-01-30T02:30:30.430Z,9.90
2018-01-30T02:32:59.739Z,9.50
2018-01-30T02:35:28.236Z,10.67
2018-01-30T02:37:56.730Z,11.87
2018-01-30T02:40:25.263Z,15.60
2018-01-30T02:42:54.521Z,13.97
2018-01-30T02:45:23.007Z,14.90
2018-01-30T02:47:51.852Z,13.80
2018-01-30T02:50:20.413Z,12.80
2018-01-30T02:52:49.714Z,16.60
2018-01-30T02:55:19.284Z,12.60
2018-01-30T02:57:47.833Z,13.23
2018-01-30T03:00:16.367Z,9.30
2018-01-30T03:02:44.955Z,6.80
2018-01-30T03:05:13.434Z,9.40
2018-01-30T03:07:41.991Z,8.57
2018-01-30T03:10:10.531Z,11.50
2018-01-30T03:12:39.795Z,10.50
2018-01-30T03:15:08.283Z,12.97
2018-01-30T03:17:36.818Z,17.60
2018-01-30T03:20:05.320Z,14.57
2018-01-30T03:22:33.867Z,16.13
2018-01-30T03:25:02.740Z,11.73
2018-01-30T03:27:32.043Z,13.13
2018-01-30T03:30:01.304Z,16.07
2018-01-30T03:32:29.855Z,72.97
2018-01-30T03:34:58.349Z,46.37
2018-01-30T03:37:26.906Z,30.13
2018-01-30T03:39:55.500Z,29.37
2018-01-30T03:42:23.988Z,16.43
2018-01-30T03:44:52.499Z,29.63
2018-01-30T03:47:21.096Z,21.60
2018-01-30T03:49:49.595Z,14.70
2018-01-30T03:52:18.872Z,12.93
2018-01-30T03:54:47.468Z,15.70
2018-01-30T03:57:16.795Z,12.07
2018-01-30T03:59:45.275Z,14.93
2018-01-30T04:02:14.678Z,11.60
2018-01-30T04:04:43.239Z,17.80
2018-01-30T04:07:11.740Z,19.80
2018-01-30T04:09:41.155Z,26.23
2018-01-30T04:12:09.715Z,27.23
2018-01-30T04:14:39.007Z,34.80
2018-01-30T04:17:07.762Z,27.10
2018-01-30T04:19:36.256Z,27.87
2018-01-30T04:22:04.759Z,28.23
2018-01-30T04:24:34.063Z,33.30
2018-01-30T04:27:03.319Z,36.57
2018-01-30T04:29:31.806Z,48.37
2018-01-30T04:32:00.527Z,41.20
2018-01-30T04:34:29.795Z,45.00
2018-01-30T04:36:58.283Z,42.63
2018-01-30T04:39:26.824Z,47.37
2018-01-30T04:41:55.384Z,49.17
2018-01-30T04:44:24.647Z,45.57
2018-01-30T04:46:53.568Z,46.53
2018-01-30T04:49:22.895Z,49.37
2018-01-30T04:51:51.383Z,55.23
2018-01-30T04:54:20.127Z,52.10
2018-01-30T04:56:48.632Z,63.40
2018-01-30T04:59:17.123Z,57.37
2018-01-30T05:01:45.666Z,54.60
2018-01-30T05:04:14.167Z,64.53
2018-01-30T05:06:43.428Z,82.57
2018-01-30T05:09:12.114Z,82.50
2018-01-30T05:11:40.674Z,95.90
2018-01-30T05:14:09.295Z,133.23
2018-01-30T05:16:38.011Z,122.30
2018-01-30T05:19:07.293Z,130.77
2018-01-30T05:21:35.834Z,142.13
2018-01-30T05:24:04.409Z,156.47
2018-01-30T05:26:32.975Z,127.73
2018-01-30T05:29:01.473Z,83.80
2018-01-30T05:31:30.115Z,82.33
2018-01-30T05:33:59.374Z,65.90
2018-01-30T05:36:27.927Z,56.73
2018-01-30T05:38:58.951Z,57.83
2018-01-30T05:41:28.275Z,56.70
2018-01-30T05:43:56.832Z,60.73
2018-01-30T05:46:26.143Z,46.33
2018-01-30T05:48:55.466Z,53.20
2018-01-30T05:51:24.026Z,65.97
2018-01-30T05:53:52.619Z,49.80
2018-01-30T05:56:21.116Z,51.60
2018-01-30T05:58:49.615Z,47.53
2018-01-30T06:01:18.439Z,19.63
2018-01-30T06:03:47.703Z,23.60
2018-01-30T06:06:16.204Z,18.37
2018-01-30T06:08:44.743Z,13.60
2018-01-30T06:11:13.232Z,16.20
2018-01-30T06:13:41.714Z,9.70
2018-01-30T06:16:10.310Z,9.93
2018-01-30T06:18:38.851Z,8.40
2018-01-30T06:21:07.330Z,9.47
2018-01-30T06:23:37.048Z,18.93
2018-01-30T06:26:05.616Z,29.37
2018-01-30T06:28:34.935Z,32.17
2018-01-30T06:31:03.470Z,22.53
2018-01-30T06:33:32.094Z,26.00
2018-01-30T06:36:01.543Z,24.57
2018-01-30T06:38:30.567Z,19.40
2018-01-30T06:40:59.934Z,19.97
2018-01-30T06:43:28.419Z,29.77
2018-01-30T06:45:57.110Z,43.57
2018-01-30T06:48:26.243Z,52.73
2018-01-30T06:50:55.491Z,47.00
2018-01-30T06:53:24.223Z,34.77
2018-01-30T06:55:54.252Z,40.17
2018-01-30T06:58:23.524Z,33.47
2018-01-30T07:00:52.120Z,35.30
2018-01-30T07:03:21.439Z,33.63
2018-01-30T07:05:50.712Z,30.23
2018-01-30T07:08:19.463Z,21.50
2018-01-30T07:10:47.951Z,13.90
2018-01-30T07:13:16.433Z,11.63
2018-01-30T07:15:45.022Z,12.07
2018-01-30T07:18:13.523Z,14.83
2018-01-30T07:20:42.081Z,12.20
2018-01-30T07:23:10.856Z,13.47
2018-01-30T07:25:39.562Z,31.13
2018-01-30T07:28:08.040Z,15.57
2018-01-30T07:30:36.882Z,25.90
2018-01-30T07:33:06.125Z,13.47
2018-01-30T07:35:34.611Z,30.17
2018-01-30T07:38:03.244Z,11.47
2018-01-30T07:40:32.598Z,12.27
2018-01-30T07:43:01.088Z,13.37
2018-01-30T07:45:29.684Z,27.13
2018-01-30T07:47:58.187Z,19.53
2018-01-30T07:50:27.439Z,18.13
2018-01-30T07:52:55.976Z,14.97
2018-01-30T07:55:25.255Z,11.93
2018-01-30T07:57:53.753Z,20.47
2018-01-30T08:00:23.305Z,18.57
2018-01-30T08:02:51.814Z,52.30
2018-01-30T08:05:20.407Z,47.67
2018-01-30T08:07:49.899Z,42.70
2018-01-30T08:10:18.497Z,43.73
2018-01-30T08:12:47.048Z,48.87
2018-01-30T08:15:15.833Z,53.20
2018-01-30T08:17:44.324Z,72.93
2018-01-30T08:20:12.823Z,99.13
2018-01-30T08:22:42.299Z,217.97
2018-01-30T08:25:10.856Z,60.40
2018-01-30T08:27:39.403Z,101.80
2018-01-30T08:30:09.126Z,127.83
2018-01-30T08:32:38.450Z,73.87
2018-01-30T08:35:06.986Z,45.70
2018-01-30T08:37:35.679Z,52.93
2018-01-30T08:40:04.173Z,78.67
2018-01-30T08:42:32.728Z,44.23
2018-01-30T08:45:02.131Z,41.57
2018-01-30T08:47:30.692Z,22.30
2018-01-30T08:49:59.979Z,27.87
2018-01-30T08:52:28.775Z,21.93
2018-01-30T08:54:57.280Z,16.30
2018-01-30T08:57:25.834Z,18.27
2018-01-30T08:59:54.670Z,25.13
2018-01-30T09:02:23.216Z,15.30
2018-01-30T09:04:51.715Z,18.43
2018-01-30T09:07:20.255Z,12.43
2018-01-30T09:09:48.745Z,16.17
2018-01-30T09:12:17.240Z,16.97
2018-01-30T09:14:46.119Z,33.07
2018-01-30T09:17:14.620Z,29.13
2018-01-30T09:19:43.247Z,13.80
2018-01-30T09:22:11.783Z,13.77
2018-01-30T09:24:40.274Z,13.37
2018-01-30T09:27:08.792Z,16.40
2018-01-30T09:29:37.443Z,16.73
2018-01-30T09:32:06.702Z,27.90
2018-01-30T09:34:35.972Z,27.73
2018-01-30T09:37:05.050Z,29.30
2018-01-30T09:39:34.311Z,23.17
2018-01-30T09:42:02.837Z,18.70
2018-01-30T09:44:32.147Z,22.53
2018-01-30T09:47:01.059Z,35.47
2018-01-30T09:49:29.838Z,35.90
2018-01-30T09:51:58.633Z,27.07
2018-01-30T09:54:27.318Z,26.70
2018-01-30T09:56:55.816Z,22.23
2018-01-30T09:59:24.911Z,25.77
2018-01-30T10:01:54.228Z,23.27
2018-01-30T10:04:23.491Z,30.13
2018-01-30T10:06:52.759Z,24.47
2018-01-30T10:09:21.252Z,33.00
2018-01-30T10:11:49.747Z,33.67
2018-01-30T10:14:18.508Z,39.87
2018-01-30T10:16:46.999Z,55.60
2018-01-30T10:19:15.495Z,52.70
2018-01-30T10:21:45.028Z,48.27
2018-01-30T10:24:14.319Z,44.60
2018-01-30T10:26:43.583Z,46.80
2018-01-30T10:29:12.119Z,38.27
2018-01-30T10:31:40.616Z,41.57
2018-01-30T10:34:10.074Z,47.23
2018-01-30T10:36:38.711Z,50.70
2018-01-30T10:39:07.217Z,41.10
2018-01-30T10:41:36.620Z,35.67
2018-01-30T10:44:05.930Z,35.63
2018-01-30T10:46:34.431Z,37.47
2018-01-30T10:49:03.691Z,58.27
2018-01-30T10:51:32.438Z,62.67
2018-01-30T10:54:00.933Z,48.80
2018-01-30T10:56:29.611Z,49.73
2018-01-30T10:58:58.150Z,52.10
2018-01-30T11:01:27.412Z,49.70
2018-01-30T11:03:55.903Z,49.57
2018-01-30T11:06:24.548Z,51.77
2018-01-30T11:08:53.290Z,42.87
2018-01-30T11:11:22.742Z,41.10
2018-01-30T11:13:51.659Z,41.73
2018-01-30T11:16:20.421Z,41.93
2018-01-30T11:18:48.920Z,39.53
2018-01-30T11:21:17.632Z,50.27
2018-01-30T11:23:47.092Z,43.47
2018-01-30T11:26:15.585Z,43.63
2018-01-30T11:28:45.826Z,44.67
2018-01-30T11:31:14.580Z,42.00
2018-01-30T11:33:43.075Z,45.00
2018-01-30T11:36:11.784Z,44.00
2018-01-30T11:38:41.039Z,41.63
2018-01-30T11:41:09.529Z,85.53
2018-01-30T11:43:38.115Z,62.63
2018-01-30T11:46:06.639Z,123.83
2018-01-30T11:48:36.069Z,173.53
2018-01-30T11:51:04.619Z,58.17
2018-01-30T11:53:33.985Z,189.87
2018-01-30T11:56:02.479Z,63.67
2018-01-30T11:58:31.028Z,43.93
2018-01-30T12:00:59.526Z,43.03
2018-01-30T12:03:28.213Z,55.03
2018-01-30T12:05:56.759Z,49.77
2018-01-30T12:08:25.485Z,38.90
2018-01-30T12:10:53.978Z,39.50
2018-01-30T12:13:23.562Z,35.33
2018-01-30T12:15:52.055Z,32.93
2018-01-30T12:18:20.547Z,24.17
2018-01-30T12:20:49.087Z,32.07
2018-01-30T12:23:17.579Z,22.37
2018-01-30T12:25:46.070Z,14.23
2018-01-30T12:28:14.971Z,14.13
2018-01-30T12:30:43.463Z,12.47
2018-01-30T12:33:11.950Z,6.43
2018-01-30T12:35:40.820Z,13.50
2018-01-30T12:38:09.310Z,22.90
2018-01-30T12:40:37.790Z,18.23
2018-01-30T12:43:06.484Z,9.30
2018-01-30T12:45:34.984Z,17.83
2018-01-30T12:48:04.304Z,20.73
2018-01-30T12:50:33.119Z,21.13
2018-01-30T12:53:01.672Z,12.97
2018-01-30T12:55:31.104Z,12.10
2018-01-30T12:57:59.951Z,13.20
2018-01-30T13:00:29.211Z,16.23
2018-01-30T13:02:57.763Z,20.77
2018-01-30T13:05:26.294Z,16.37
2018-01-30T13:07:54.797Z,10.23
2018-01-30T13:10:23.367Z,7.50
2018-01-30T13:12:51.914Z,8.33
2018-01-30T13:15:20.407Z,17.47
2018-01-30T13:17:48.903Z,8.30
2018-01-30T13:20:17.448Z,7.23
2018-01-30T13:22:45.946Z,3.67
2018-01-30T13:25:14.487Z,11.57
2018-01-30T13:27:43.120Z,5.13
2018-01-30T13:30:11.612Z,7.37
2018-01-30T13:32:40.107Z,10.07
2018-01-30T13:35:08.711Z,14.23
2018-01-30T13:37:37.231Z,28.53
2018-01-30T13:40:05.730Z,20.27
2018-01-30T13:42:34.710Z,11.10
2018-01-30T13:45:03.264Z,14.50
2018-01-30T13:47:31.820Z,28.37
2018-01-30T13:50:01.314Z,13.67
2018-01-30T13:52:29.872Z,33.33
2018-01-30T13:54:58.425Z,12.10
2018-01-30T13:57:27.275Z,17.30
2018-01-30T13:59:55.783Z,11.20
2018-01-30T14:02:24.344Z,10.77
2018-01-30T14:04:53.663Z,12.57
2018-01-30T14:07:22.920Z,6.73
2018-01-30T14:09:51.423Z,10.87
2018-01-30T14:12:20.808Z,10.53
2018-01-30T14:14:49.369Z,9.23
2018-01-30T14:17:17.930Z,12.07
2018-01-30T14:19:46.577Z,8.10
2018-01-30T14:22:15.081Z,10.70
2018-01-30T14:24:43.578Z,21.73
2018-01-30T14:27:12.199Z,16.33
2018-01-30T14:29:40.740Z,9.00
2018-01-30T14:32:10.063Z,9.33
2018-01-30T14:34:38.686Z,8.30
2018-01-30T14:37:07.276Z,5.93
2018-01-30T14:39:35.832Z,10.30
2018-01-30T14:42:04.747Z,8.83
2018-01-30T14:44:33.247Z,7.90
2018-01-30T14:47:01.744Z,13.67
2018-01-30T14:49:30.444Z,8.97
2018-01-30T14:51:59.695Z,9.83
2018-01-30T14:54:28.192Z,8.47
2018-01-30T14:56:56.829Z,9.43
2018-01-30T14:59:25.336Z,10.63
2018-01-30T15:01:54.657Z,20.63
2018-01-30T15:04:24.024Z,14.27
2018-01-30T15:06:52.588Z,14.77
2018-01-30T15:09:21.153Z,24.10
2018-01-30T15:11:49.765Z,20.80
2018-01-30T15:14:19.092Z,26.07
2018-01-30T15:16:47.658Z,26.83
2018-01-30T15:19:17.036Z,24.00
2018-01-30T15:21:45.605Z,26.97
2018-01-30T15:24:14.176Z,46.30
2018-01-30T15:26:42.924Z,49.33
2018-01-30T15:29:12.252Z,34.47
2018-01-30T15:31:40.815Z,31.07
2018-01-30T15:34:09.689Z,22.37
2018-01-30T15:36:39.017Z,21.83
2018-01-30T15:39:07.577Z,20.20
2018-01-30T15:41:37.330Z,23.80
2018-01-30T15:44:05.889Z,20.93
2018-01-30T15:46:34.457Z,32.00
2018-01-30T15:49:03.068Z,38.77
2018-01-30T15:51:31.627Z,34.37
2018-01-30T15:54:00.976Z,34.03
2018-01-30T15:56:29.969Z,33.87
2018-01-30T15:58:58.543Z,31.27
2018-01-30T16:01:27.110Z,28.67
2018-01-30T16:03:56.123Z,21.70
2018-01-30T16:06:24.684Z,27.63
2018-01-30T16:08:53.241Z,25.43
2018-01-30T16:11:21.844Z,28.60
2018-01-30T16:13:50.423Z,28.10
2018-01-30T16:16:18.983Z,31.90
2018-01-30T16:18:48.753Z,21.70
2018-01-30T16:21:17.312Z,21.73
2018-01-30T16:23:45.872Z,27.20
2018-01-30T16:26:14.484Z,25.13
2018-01-30T16:28:43.044Z,35.13
2018-01-30T16:31:11.633Z,40.00
2018-01-30T16:33:40.255Z,60.00
2018-01-30T16:36:08.837Z,40.80
2018-01-30T16:38:37.536Z,40.83
2018-01-30T16:41:06.518Z,57.73
2018-01-30T16:43:35.097Z,30.53
2018-01-30T16:46:03.684Z,30.97
2018-01-30T16:48:32.321Z,20.07
2018-01-30T16:51:00.893Z,34.63
2018-01-30T16:53:29.463Z,32.90
2018-01-30T16:55:58.101Z,36.70
2018-01-30T16:58:26.700Z,43.77
2018-01-30T17:00:56.112Z,66.77
2018-01-30T17:03:25.689Z,44.20
2018-01-30T17:05:54.260Z,49.83
2018-01-30T17:08:22.821Z,36.33
2018-01-30T17:10:51.612Z,46.90
2018-01-30T17:13:20.173Z,33.70
2018-01-30T17:15:48.753Z,47.67
2018-01-30T17:18:17.364Z,32.53
2018-01-30T17:20:45.940Z,27.53
2018-01-30T17:23:14.521Z,30.10
2018-01-30T17:25:44.038Z,30.67
2018-01-30T17:28:12.605Z,29.07
2018-01-30T17:30:41.935Z,35.60
2018-01-30T17:33:10.552Z,33.87
2018-01-30T17:35:39.119Z,39.30
2018-01-30T17:38:07.698Z,80.93
2018-01-30T17:40:36.600Z,23.20
2018-01-30T17:43:05.170Z,22.80
2018-01-30T17:45:33.751Z,46.33
2018-01-30T17:48:02.736Z,39.80
2018-01-30T17:50:31.317Z,77.77
2018-01-30T17:52:59.884Z,95.73
2018-01-30T17:55:28.501Z,92.97
2018-01-30T17:57:57.072Z,75.40
2018-01-30T18:00:25.636Z,111.30
2018-01-30T18:02:54.441Z,83.43
2018-01-30T18:05:22.998Z,59.47
2018-01-30T18:07:51.553Z,60.43
2018-01-30T18:10:21.204Z,55.00
2018-01-30T18:12:50.525Z,58.50
2018-01-30T18:15:19.088Z,37.50
2018-01-30T18:17:47.698Z,62.27
2018-01-30T18:20:16.261Z,90.63
2018-01-30T18:22:44.817Z,81.37
2018-01-30T18:25:14.388Z,128.57
2018-01-30T18:27:42.944Z,95.63
2018-01-30T18:30:11.512Z,90.73
2018-01-30T18:32:40.121Z,95.53
2018-01-30T18:35:08.676Z,162.20
2018-01-30T18:37:37.996Z,105.03
2018-01-30T18:40:06.765Z,189.77
2018-01-30T18:42:35.525Z,176.47
2018-01-30T18:45:04.861Z,133.30
2018-01-30T18:47:33.690Z,98.67
2018-01-30T18:50:02.277Z,99.27
2018-01-30T18:52:30.837Z,205.10
2018-01-30T18:55:00.162Z,189.10
2018-01-30T18:57:28.647Z,78.43
2018-01-30T18:59:57.140Z,143.37
2018-01-30T19:02:25.783Z,213.90
2018-01-30T19:04:54.277Z,62.57
2018-01-30T19:07:22.767Z,243.40
2018-01-30T19:09:51.317Z,201.43
2018-01-30T19:12:19.855Z,247.97
2018-01-30T19:14:48.406Z,95.03
2018-01-30T19:17:16.967Z,233.83
2018-01-30T19:19:45.515Z,429.93
2018-01-30T19:22:14.845Z,403.77
2018-01-30T19:24:43.567Z,289.67
2018-01-30T19:27:12.069Z,138.17
2018-01-30T19:29:40.624Z,87.27
2018-01-30T19:32:09.359Z,55.87
2018-01-30T19:34:37.899Z,30.93
2018-01-30T19:37:06.455Z,70.63
2018-01-30T19:39:35.002Z,45.60
2018-01-30T19:42:03.504Z,54.87
2018-01-30T19:44:32.007Z,50.63
2018-01-30T19:47:00.635Z,119.43
2018-01-30T19:49:29.231Z,75.33
2018-01-30T19:51:58.503Z,76.67
2018-01-30T19:54:27.053Z,55.10
2018-01-30T19:56:55.547Z,57.30
2018-01-30T19:59:24.945Z,32.40
2018-01-30T20:01:54.337Z,37.77
2018-01-30T20:04:22.901Z,43.70
2018-01-30T20:06:52.418Z,66.37
2018-01-30T20:09:21.055Z,51.53
2018-01-30T20:11:49.600Z,43.87
2018-01-30T20:14:18.115Z,73.37
2018-01-30T20:16:47.607Z,71.33
2018-01-30T20:19:16.932Z,175.90
2018-01-30T20:21:45.425Z,87.27
2018-01-30T20:24:14.275Z,46.37
2018-01-30T20:26:45.583Z,47.80
2018-01-30T20:29:14.130Z,37.03
2018-01-30T20:31:42.685Z,41.27
2018-01-30T20:34:11.180Z,32.17
2018-01-30T20:36:40.447Z,31.73
2018-01-30T20:39:09.000Z,29.67
2018-01-30T20:41:37.523Z,72.17
2018-01-30T20:44:06.035Z,113.60
2018-01-30T20:46:35.359Z,80.80
2018-01-30T20:49:03.908Z,90.23
2018-01-30T20:51:33.179Z,47.33
2018-01-30T20:54:01.719Z,42.33
2018-01-30T20:56:30.259Z,57.97
2018-01-30T20:58:59.583Z,64.60
2018-01-30T21:01:28.192Z,61.63
2018-01-30T21:03:56.747Z,48.97
2018-01-30T21:06:25.251Z,47.67
2018-01-30T21:08:54.045Z,36.20
2018-01-30T21:11:22.543Z,33.30
2018-01-30T21:13:51.088Z,28.67
2018-01-30T21:16:20.015Z,30.23
2018-01-30T21:18:48.576Z,23.60
2018-01-30T21:21:17.188Z,29.27
2018-01-30T21:23:45.880Z,23.30
2018-01-30T21:26:14.400Z,25.50
2018-01-30T21:28:43.663Z,23.97
2018-01-30T21:31:12.256Z,22.90
2018-01-30T21:33:40.769Z,26.20
2018-01-30T21:36:10.081Z,25.47
2018-01-30T21:38:38.619Z,31.33
2018-01-30T21:41:07.172Z,28.20
2018-01-30T21:43:35.667Z,26.47
2018-01-30T21:46:04.299Z,26.73
2018-01-30T21:48:33.545Z,19.83
2018-01-30T21:51:02.038Z,24.57
2018-01-30T21:53:30.599Z,20.90
2018-01-30T21:55:59.148Z,19.03
2018-01-30T21:58:27.639Z,18.30
2018-01-30T22:00:56.992Z,17.10
2018-01-30T22:03:25.487Z,15.57
2018-01-30T22:05:53.993Z,16.23
2018-01-30T22:08:23.296Z,18.53
2018-01-30T22:10:52.554Z,19.80
2018-01-30T22:13:21.044Z,14.33
2018-01-30T22:15:49.589Z,20.77
2018-01-30T22:18:18.136Z,16.80
2018-01-30T22:20:47.399Z,18.10
2018-01-30T22:23:15.941Z,15.77
2018-01-30T22:25:44.491Z,16.97
2018-01-30T22:28:13.807Z,16.10
2018-01-30T22:30:43.177Z,14.43
2018-01-30T22:33:11.671Z,18.43
2018-01-30T22:35:40.154Z,17.80
2018-01-30T22:38:08.747Z,22.63
2018-01-30T22:40:38.064Z,23.60
2018-01-30T22:43:06.555Z,31.30
2018-01-30T22:45:35.186Z,21.87
